sensor_id;sensor_type;location;lat;lon;timestamp;P1;durP1;ratioP1;P2;durP2;ratioP2
64457;SDS011;58438;51.200;7.252;2022-07-29T00:00:56;6.50;;;3.15;;
64457;SDS011;58438;51.200;7.252;2022-07-29T00:03:43;5.60;;;3.15;;
64457;SDS011;58438;51.200;7.252;2022-07-29T00:06:30;7.53;;;3.05;;
64457;SDS011;58438;51.200;7.252;2022-07-29T00:09:18;6.40;;;2.92;;
64457;SDS011;58438;51.200;7.252;2022-07-29T00:12:09;6.80;;;3.92;;
64457;SDS011;58438;51.200;7.252;2022-07-29T00:14:59;6.15;;;3.50;;
64457;SDS011;58438;51.200;7.252;2022-07-29T00:17:49;6.18;;;3.20;;
64457;SDS011;58438;51.200;7.252;2022-07-29T00:20:38;7.90;;;3.42;;
64457;SDS011;58438;51.200;7.252;2022-07-29T00:23:27;6.38;;;3.45;;
64457;SDS011;58438;51.200;7.252;2022-07-29T00:26:22;4.47;;;2.88;;
64457;SDS011;58438;51.200;7.252;2022-07-29T00:29:14;4.15;;;2.58;;
64457;SDS011;58438;51.200;7.252;2022-07-29T00:32:19;4.70;;;3.10;;
64457;SDS011;58438;51.200;7.252;2022-07-29T00:35:09;6.30;;;3.28;;
64457;SDS011;58438;51.200;7.252;2022-07-29T00:38:16;4.90;;;3.20;;
64457;SDS011;58438;51.200;7.252;2022-07-29T00:41:05;7.03;;;3.17;;
64457;SDS011;58438;51.200;7.252;2022-07-29T00:43:55;6.50;;;2.85;;
64457;SDS011;58438;51.200;7.252;2022-07-29T00:46:46;5.82;;;3.13;;
64457;SDS011;58438;51.200;7.252;2022-07-29T00:49:36;5.90;;;3.15;;
64457;SDS011;58438;51.200;7.252;2022-07-29T00:52:24;6.95;;;2.97;;
64457;SDS011;58438;51.200;7.252;2022-07-29T00:55:15;4.45;;;2.60;;
64457;SDS011;58438;51.200;7.252;2022-07-29T00:58:04;7.63;;;3.05;;
64457;SDS011;58438;51.200;7.252;2022-07-29T01:00:51;8.73;;;3.72;;
64457;SDS011;58438;51.200;7.252;2022-07-29T01:03:40;11.38;;;4.47;;
64457;SDS011;58438;51.200;7.252;2022-07-29T01:06:27;7.45;;;3.85;;
64457;SDS011;58438;51.200;7.252;2022-07-29T01:09:14;6.78;;;3.63;;
64457;SDS011;58438;51.200;7.252;2022-07-29T01:12:22;8.93;;;3.88;;
64457;SDS011;58438;51.200;7.252;2022-07-29T01:15:11;11.90;;;4.80;;
64457;SDS011;58438;51.200;7.252;2022-07-29T01:18:00;9.80;;;3.75;;
64457;SDS011;58438;51.200;7.252;2022-07-29T01:21:12;8.65;;;4.28;;
64457;SDS011;58438;51.200;7.252;2022-07-29T01:24:09;7.82;;;3.95;;
64457;SDS011;58438;51.200;7.252;2022-07-29T01:26:59;7.97;;;3.80;;
64457;SDS011;58438;51.200;7.252;2022-07-29T01:29:55;7.75;;;3.70;;
64457;SDS011;58438;51.200;7.252;2022-07-29T01:32:44;6.25;;;3.70;;
64457;SDS011;58438;51.200;7.252;2022-07-29T01:35:35;5.47;;;4.20;;
64457;SDS011;58438;51.200;7.252;2022-07-29T01:38:23;5.25;;;3.85;;
64457;SDS011;58438;51.200;7.252;2022-07-29T01:41:12;6.32;;;3.65;;
64457;SDS011;58438;51.200;7.252;2022-07-29T01:44:02;6.40;;;3.38;;
64457;SDS011;58438;51.200;7.252;2022-07-29T01:46:56;8.02;;;3.85;;
64457;SDS011;58438;51.200;7.252;2022-07-29T01:49:46;6.22;;;4.10;;
64457;SDS011;58438;51.200;7.252;2022-07-29T01:52:34;8.15;;;3.72;;
64457;SDS011;58438;51.200;7.252;2022-07-29T01:55:24;7.00;;;3.65;;
64457;SDS011;58438;51.200;7.252;2022-07-29T01:58:12;5.82;;;3.72;;
64457;SDS011;58438;51.200;7.252;2022-07-29T02:01:04;6.72;;;4.28;;
64457;SDS011;58438;51.200;7.252;2022-07-29T02:03:53;7.22;;;3.60;;
64457;SDS011;58438;51.200;7.252;2022-07-29T02:06:42;6.43;;;3.97;;
64457;SDS011;58438;51.200;7.252;2022-07-29T02:09:31;6.72;;;3.60;;
64457;SDS011;58438;51.200;7.252;2022-07-29T02:12:20;6.75;;;3.20;;
64457;SDS011;58438;51.200;7.252;2022-07-29T02:15:08;9.70;;;4.85;;
64457;SDS011;58438;51.200;7.252;2022-07-29T02:18:00;8.18;;;3.80;;
64457;SDS011;58438;51.200;7.252;2022-07-29T02:20:50;9.60;;;3.83;;
64457;SDS011;58438;51.200;7.252;2022-07-29T02:23:39;5.47;;;3.53;;
64457;SDS011;58438;51.200;7.252;2022-07-29T02:26:36;6.32;;;3.60;;
64457;SDS011;58438;51.200;7.252;2022-07-29T02:29:24;9.40;;;3.63;;
64457;SDS011;58438;51.200;7.252;2022-07-29T02:32:13;6.70;;;3.42;;
64457;SDS011;58438;51.200;7.252;2022-07-29T02:35:01;5.05;;;3.17;;
64457;SDS011;58438;51.200;7.252;2022-07-29T02:37:51;6.10;;;3.25;;
64457;SDS011;58438;51.200;7.252;2022-07-29T02:40:52;8.13;;;3.60;;
64457;SDS011;58438;51.200;7.252;2022-07-29T02:43:40;6.60;;;2.70;;
64457;SDS011;58438;51.200;7.252;2022-07-29T02:46:31;7.60;;;4.00;;
64457;SDS011;58438;51.200;7.252;2022-07-29T02:49:25;7.05;;;3.95;;
64457;SDS011;58438;51.200;7.252;2022-07-29T02:52:16;6.75;;;3.90;;
64457;SDS011;58438;51.200;7.252;2022-07-29T02:55:09;8.43;;;3.80;;
64457;SDS011;58438;51.200;7.252;2022-07-29T02:57:58;16.27;;;4.38;;
64457;SDS011;58438;51.200;7.252;2022-07-29T03:00:47;8.93;;;4.85;;
64457;SDS011;58438;51.200;7.252;2022-07-29T03:03:36;7.25;;;4.45;;
64457;SDS011;58438;51.200;7.252;2022-07-29T03:06:24;7.90;;;4.15;;
64457;SDS011;58438;51.200;7.252;2022-07-29T03:09:23;5.55;;;3.80;;
64457;SDS011;58438;51.200;7.252;2022-07-29T03:12:12;4.25;;;3.47;;
64457;SDS011;58438;51.200;7.252;2022-07-29T03:15:00;8.55;;;3.92;;
64457;SDS011;58438;51.200;7.252;2022-07-29T03:17:48;6.75;;;3.80;;
64457;SDS011;58438;51.200;7.252;2022-07-29T03:20:36;6.35;;;3.50;;
64457;SDS011;58438;51.200;7.252;2022-07-29T03:23:24;8.32;;;3.83;;
64457;SDS011;58438;51.200;7.252;2022-07-29T03:26:19;7.70;;;3.90;;
64457;SDS011;58438;51.200;7.252;2022-07-29T03:29:08;5.65;;;3.90;;
64457;SDS011;58438;51.200;7.252;2022-07-29T03:31:58;6.95;;;3.88;;
64457;SDS011;58438;51.200;7.252;2022-07-29T03:34:47;5.80;;;3.45;;
64457;SDS011;58438;51.200;7.252;2022-07-29T03:37:34;4.97;;;3.60;;
64457;SDS011;58438;51.200;7.252;2022-07-29T03:40:22;4.75;;;3.13;;
64457;SDS011;58438;51.200;7.252;2022-07-29T03:43:11;6.78;;;3.50;;
64457;SDS011;58438;51.200;7.252;2022-07-29T03:46:02;4.18;;;3.00;;
64457;SDS011;58438;51.200;7.252;2022-07-29T03:48:54;5.32;;;3.10;;
64457;SDS011;58438;51.200;7.252;2022-07-29T03:51:43;6.25;;;2.65;;
64457;SDS011;58438;51.200;7.252;2022-07-29T03:54:30;5.47;;;3.38;;
64457;SDS011;58438;51.200;7.252;2022-07-29T03:57:17;5.18;;;3.10;;
64457;SDS011;58438;51.200;7.252;2022-07-29T04:00:07;4.63;;;3.05;;
64457;SDS011;58438;51.200;7.252;2022-07-29T04:02:56;10.32;;;4.22;;
64457;SDS011;58438;51.200;7.252;2022-07-29T04:05:44;9.05;;;3.50;;
64457;SDS011;58438;51.200;7.252;2022-07-29T04:08:31;5.20;;;3.88;;
64457;SDS011;58438;51.200;7.252;2022-07-29T04:11:19;6.63;;;3.20;;
64457;SDS011;58438;51.200;7.252;2022-07-29T04:14:18;6.50;;;3.90;;
64457;SDS011;58438;51.200;7.252;2022-07-29T04:17:20;9.57;;;4.13;;
64457;SDS011;58438;51.200;7.252;2022-07-29T04:20:23;5.72;;;3.92;;
64457;SDS011;58438;51.200;7.252;2022-07-29T04:23:18;4.95;;;3.65;;
64457;SDS011;58438;51.200;7.252;2022-07-29T04:26:09;8.43;;;3.60;;
64457;SDS011;58438;51.200;7.252;2022-07-29T04:28:56;6.60;;;3.47;;
64457;SDS011;58438;51.200;7.252;2022-07-29T04:31:43;4.93;;;3.30;;
64457;SDS011;58438;51.200;7.252;2022-07-29T04:34:38;7.25;;;3.85;;
64457;SDS011;58438;51.200;7.252;2022-07-29T04:37:30;7.90;;;4.07;;
64457;SDS011;58438;51.200;7.252;2022-07-29T04:40:17;5.20;;;3.75;;
64457;SDS011;58438;51.200;7.252;2022-07-29T04:43:05;6.13;;;3.47;;
64457;SDS011;58438;51.200;7.252;2022-07-29T04:45:53;7.22;;;3.53;;
64457;SDS011;58438;51.200;7.252;2022-07-29T04:48:40;7.97;;;3.65;;
64457;SDS011;58438;51.200;7.252;2022-07-29T04:51:27;5.97;;;3.58;;
64457;SDS011;58438;51.200;7.252;2022-07-29T04:54:17;5.45;;;3.33;;
64457;SDS011;58438;51.200;7.252;2022-07-29T04:57:05;10.57;;;3.75;;
64457;SDS011;58438;51.200;7.252;2022-07-29T04:59:52;9.15;;;3.60;;
64457;SDS011;58438;51.200;7.252;2022-07-29T05:02:40;8.30;;;4.10;;
64457;SDS011;58438;51.200;7.252;2022-07-29T05:05:27;10.98;;;4.07;;
64457;SDS011;58438;51.200;7.252;2022-07-29T05:08:14;11.77;;;4.30;;
64457;SDS011;58438;51.200;7.252;2022-07-29T05:11:03;12.75;;;4.72;;
64457;SDS011;58438;51.200;7.252;2022-07-29T05:13:57;7.95;;;4.40;;
64457;SDS011;58438;51.200;7.252;2022-07-29T05:16:45;7.72;;;3.78;;
64457;SDS011;58438;51.200;7.252;2022-07-29T05:19:32;8.93;;;4.47;;
64457;SDS011;58438;51.200;7.252;2022-07-29T05:22:24;8.52;;;4.22;;
64457;SDS011;58438;51.200;7.252;2022-07-29T05:25:11;9.38;;;4.00;;
64457;SDS011;58438;51.200;7.252;2022-07-29T05:28:00;6.15;;;3.72;;
64457;SDS011;58438;51.200;7.252;2022-07-29T05:30:47;7.38;;;4.40;;
64457;SDS011;58438;51.200;7.252;2022-07-29T05:33:35;7.15;;;4.30;;
64457;SDS011;58438;51.200;7.252;2022-07-29T05:36:23;12.02;;;4.40;;
64457;SDS011;58438;51.200;7.252;2022-07-29T05:39:10;8.18;;;4.20;;
64457;SDS011;58438;51.200;7.252;2022-07-29T05:41:58;7.50;;;3.72;;
64457;SDS011;58438;51.200;7.252;2022-07-29T05:44:47;7.07;;;4.22;;
64457;SDS011;58438;51.200;7.252;2022-07-29T05:47:35;8.80;;;4.07;;
64457;SDS011;58438;51.200;7.252;2022-07-29T05:50:22;9.82;;;4.32;;
64457;SDS011;58438;51.200;7.252;2022-07-29T05:53:10;7.70;;;4.10;;
64457;SDS011;58438;51.200;7.252;2022-07-29T05:56:05;9.77;;;4.30;;
64457;SDS011;58438;51.200;7.252;2022-07-29T05:58:53;7.88;;;4.25;;
64457;SDS011;58438;51.200;7.252;2022-07-29T06:01:41;7.75;;;3.72;;
64457;SDS011;58438;51.200;7.252;2022-07-29T06:04:29;8.00;;;4.20;;
64457;SDS011;58438;51.200;7.252;2022-07-29T06:07:16;10.35;;;4.40;;
64457;SDS011;58438;51.200;7.252;2022-07-29T06:10:03;8.02;;;4.05;;
64457;SDS011;58438;51.200;7.252;2022-07-29T06:12:50;7.63;;;4.78;;
64457;SDS011;58438;51.200;7.252;2022-07-29T06:15:37;9.63;;;4.07;;
64457;SDS011;58438;51.200;7.252;2022-07-29T06:18:29;6.18;;;3.88;;
64457;SDS011;58438;51.200;7.252;2022-07-29T06:21:17;6.15;;;3.45;;
64457;SDS011;58438;51.200;7.252;2022-07-29T06:24:05;6.22;;;4.13;;
64457;SDS011;58438;51.200;7.252;2022-07-29T06:26:52;5.57;;;3.75;;
64457;SDS011;58438;51.200;7.252;2022-07-29T06:29:40;13.50;;;4.53;;
64457;SDS011;58438;51.200;7.252;2022-07-29T06:32:27;5.43;;;3.75;;
64457;SDS011;58438;51.200;7.252;2022-07-29T06:35:16;6.20;;;3.92;;
64457;SDS011;58438;51.200;7.252;2022-07-29T06:38:23;10.07;;;4.20;;
64457;SDS011;58438;51.200;7.252;2022-07-29T06:41:18;7.53;;;3.92;;
64457;SDS011;58438;51.200;7.252;2022-07-29T06:44:06;7.07;;;3.42;;
64457;SDS011;58438;51.200;7.252;2022-07-29T06:46:53;6.57;;;3.53;;
64457;SDS011;58438;51.200;7.252;2022-07-29T06:49:41;6.70;;;3.80;;
64457;SDS011;58438;51.200;7.252;2022-07-29T06:52:29;10.20;;;3.80;;
64457;SDS011;58438;51.200;7.252;2022-07-29T06:55:17;6.80;;;3.75;;
64457;SDS011;58438;51.200;7.252;2022-07-29T06:58:10;7.35;;;3.92;;
64457;SDS011;58438;51.200;7.252;2022-07-29T07:00:58;6.65;;;3.60;;
64457;SDS011;58438;51.200;7.252;2022-07-29T07:03:46;7.63;;;3.38;;
64457;SDS011;58438;51.200;7.252;2022-07-29T07:06:35;8.68;;;4.53;;
64457;SDS011;58438;51.200;7.252;2022-07-29T07:09:24;6.20;;;3.85;;
64457;SDS011;58438;51.200;7.252;2022-07-29T07:12:25;8.32;;;3.72;;
64457;SDS011;58438;51.200;7.252;2022-07-29T07:15:13;8.55;;;3.60;;
64457;SDS011;58438;51.200;7.252;2022-07-29T07:18:00;7.03;;;3.78;;
64457;SDS011;58438;51.200;7.252;2022-07-29T07:20:48;5.63;;;3.40;;
64457;SDS011;58438;51.200;7.252;2022-07-29T07:23:34;8.07;;;3.35;;
64457;SDS011;58438;51.200;7.252;2022-07-29T07:26:23;5.18;;;3.55;;
64457;SDS011;58438;51.200;7.252;2022-07-29T07:29:10;5.72;;;3.17;;
64457;SDS011;58438;51.200;7.252;2022-07-29T07:31:58;7.03;;;3.88;;
64457;SDS011;58438;51.200;7.252;2022-07-29T07:34:46;6.97;;;3.30;;
64457;SDS011;58438;51.200;7.252;2022-07-29T07:37:33;4.53;;;3.38;;
64457;SDS011;58438;51.200;7.252;2022-07-29T07:40:21;5.05;;;3.00;;
64457;SDS011;58438;51.200;7.252;2022-07-29T07:43:10;6.68;;;3.20;;
64457;SDS011;58438;51.200;7.252;2022-07-29T07:45:59;5.25;;;3.45;;
64457;SDS011;58438;51.200;7.252;2022-07-29T07:48:47;6.20;;;3.40;;
64457;SDS011;58438;51.200;7.252;2022-07-29T07:51:35;6.75;;;2.97;;
64457;SDS011;58438;51.200;7.252;2022-07-29T07:54:22;5.68;;;3.47;;
64457;SDS011;58438;51.200;7.252;2022-07-29T07:57:10;7.45;;;3.65;;
64457;SDS011;58438;51.200;7.252;2022-07-29T08:00:02;3.88;;;2.95;;
64457;SDS011;58438;51.200;7.252;2022-07-29T08:02:50;8.32;;;3.17;;
64457;SDS011;58438;51.200;7.252;2022-07-29T08:05:40;5.40;;;3.00;;
64457;SDS011;58438;51.200;7.252;2022-07-29T08:08:28;4.75;;;3.00;;
64457;SDS011;58438;51.200;7.252;2022-07-29T08:11:16;6.55;;;3.47;;
64457;SDS011;58438;51.200;7.252;2022-07-29T08:14:03;6.00;;;3.03;;
64457;SDS011;58438;51.200;7.252;2022-07-29T08:16:52;4.35;;;2.90;;
64457;SDS011;58438;51.200;7.252;2022-07-29T08:19:40;7.40;;;3.30;;
64457;SDS011;58438;51.200;7.252;2022-07-29T08:22:30;9.45;;;3.50;;
64457;SDS011;58438;51.200;7.252;2022-07-29T08:25:19;8.15;;;3.60;;
64457;SDS011;58438;51.200;7.252;2022-07-29T08:28:10;6.28;;;3.20;;
64457;SDS011;58438;51.200;7.252;2022-07-29T08:30:57;6.43;;;3.50;;
64457;SDS011;58438;51.200;7.252;2022-07-29T08:33:47;12.13;;;5.20;;
64457;SDS011;58438;51.200;7.252;2022-07-29T08:36:36;6.85;;;3.20;;
64457;SDS011;58438;51.200;7.252;2022-07-29T08:39:25;7.53;;;3.55;;
64457;SDS011;58438;51.200;7.252;2022-07-29T08:42:13;11.52;;;3.70;;
64457;SDS011;58438;51.200;7.252;2022-07-29T08:45:02;5.68;;;3.17;;
64457;SDS011;58438;51.200;7.252;2022-07-29T08:47:49;6.35;;;3.38;;
64457;SDS011;58438;51.200;7.252;2022-07-29T08:50:38;9.35;;;3.65;;
64457;SDS011;58438;51.200;7.252;2022-07-29T08:53:30;9.32;;;3.45;;
64457;SDS011;58438;51.200;7.252;2022-07-29T08:56:19;6.07;;;3.70;;
64457;SDS011;58438;51.200;7.252;2022-07-29T08:59:07;6.18;;;3.22;;
64457;SDS011;58438;51.200;7.252;2022-07-29T09:02:00;6.65;;;3.88;;
64457;SDS011;58438;51.200;7.252;2022-07-29T09:05:11;9.13;;;3.65;;
64457;SDS011;58438;51.200;7.252;2022-07-29T09:08:04;6.18;;;3.72;;
64457;SDS011;58438;51.200;7.252;2022-07-29T09:10:58;7.63;;;3.65;;
64457;SDS011;58438;51.200;7.252;2022-07-29T09:16:51;7.32;;;3.67;;
64457;SDS011;58438;51.200;7.252;2022-07-29T09:19:39;7.05;;;4.32;;
64457;SDS011;58438;51.200;7.252;2022-07-29T09:22:36;10.10;;;3.92;;
64457;SDS011;58438;51.200;7.252;2022-07-29T09:25:33;5.22;;;3.65;;
64457;SDS011;58438;51.200;7.252;2022-07-29T09:28:21;7.00;;;3.75;;
64457;SDS011;58438;51.200;7.252;2022-07-29T09:31:09;7.60;;;3.75;;
64457;SDS011;58438;51.200;7.252;2022-07-29T09:33:57;7.60;;;4.18;;
64457;SDS011;58438;51.200;7.252;2022-07-29T09:36:49;9.35;;;4.80;;
64457;SDS011;58438;51.200;7.252;2022-07-29T09:39:46;5.55;;;4.30;;
64457;SDS011;58438;51.200;7.252;2022-07-29T09:42:41;7.78;;;4.82;;
64457;SDS011;58438;51.200;7.252;2022-07-29T09:45:35;9.60;;;4.40;;
64457;SDS011;58438;51.200;7.252;2022-07-29T09:48:24;10.23;;;5.05;;
64457;SDS011;58438;51.200;7.252;2022-07-29T09:51:18;6.85;;;4.78;;
64457;SDS011;58438;51.200;7.252;2022-07-29T09:54:23;9.93;;;4.80;;
64457;SDS011;58438;51.200;7.252;2022-07-29T09:57:21;8.55;;;4.30;;
64457;SDS011;58438;51.200;7.252;2022-07-29T10:00:17;10.23;;;4.18;;
64457;SDS011;58438;51.200;7.252;2022-07-29T10:03:05;8.00;;;3.67;;
64457;SDS011;58438;51.200;7.252;2022-07-29T10:06:04;9.10;;;5.20;;
64457;SDS011;58438;51.200;7.252;2022-07-29T10:08:51;8.38;;;3.92;;
64457;SDS011;58438;51.200;7.252;2022-07-29T10:11:40;6.78;;;3.83;;
64457;SDS011;58438;51.200;7.252;2022-07-29T10:14:34;5.68;;;3.90;;
64457;SDS011;58438;51.200;7.252;2022-07-29T10:17:23;5.97;;;3.60;;
64457;SDS011;58438;51.200;7.252;2022-07-29T10:20:10;6.80;;;3.80;;
64457;SDS011;58438;51.200;7.252;2022-07-29T10:23:01;8.95;;;4.00;;
64457;SDS011;58438;51.200;7.252;2022-07-29T10:25:48;7.70;;;3.88;;
64457;SDS011;58438;51.200;7.252;2022-07-29T10:28:35;7.20;;;3.85;;
64457;SDS011;58438;51.200;7.252;2022-07-29T10:31:24;6.43;;;3.40;;
64457;SDS011;58438;51.200;7.252;2022-07-29T10:34:16;6.53;;;3.90;;
64457;SDS011;58438;51.200;7.252;2022-07-29T10:37:07;7.40;;;3.55;;
64457;SDS011;58438;51.200;7.252;2022-07-29T10:40:07;8.35;;;4.20;;
64457;SDS011;58438;51.200;7.252;2022-07-29T10:43:16;6.70;;;3.83;;
64457;SDS011;58438;51.200;7.252;2022-07-29T10:46:04;5.55;;;3.25;;
64457;SDS011;58438;51.200;7.252;2022-07-29T10:49:06;5.95;;;3.65;;
64457;SDS011;58438;51.200;7.252;2022-07-29T10:52:00;7.07;;;3.47;;
64457;SDS011;58438;51.200;7.252;2022-07-29T10:55:09;4.97;;;3.55;;
64457;SDS011;58438;51.200;7.252;2022-07-29T10:58:18;5.60;;;3.85;;
64457;SDS011;58438;51.200;7.252;2022-07-29T11:01:27;7.40;;;3.92;;
64457;SDS011;58438;51.200;7.252;2022-07-29T11:07:33;8.65;;;3.83;;
64457;SDS011;58438;51.200;7.252;2022-07-29T11:10:31;6.28;;;3.20;;
64457;SDS011;58438;51.200;7.252;2022-07-29T11:16:30;5.57;;;4.30;;
64457;SDS011;58438;51.200;7.252;2022-07-29T11:19:35;7.57;;;4.18;;
64457;SDS011;58438;51.200;7.252;2022-07-29T11:22:35;8.55;;;3.45;;
64457;SDS011;58438;51.200;7.252;2022-07-29T11:25:30;7.13;;;4.00;;
64457;SDS011;58438;51.200;7.252;2022-07-29T11:28:37;6.72;;;4.05;;
64457;SDS011;58438;51.200;7.252;2022-07-29T11:31:36;9.60;;;3.92;;
64457;SDS011;58438;51.200;7.252;2022-07-29T11:34:25;7.57;;;4.20;;
64457;SDS011;58438;51.200;7.252;2022-07-29T11:37:16;7.65;;;3.78;;
64457;SDS011;58438;51.200;7.252;2022-07-29T11:40:13;5.05;;;3.90;;
64457;SDS011;58438;51.200;7.252;2022-07-29T11:43:03;9.88;;;3.80;;
64457;SDS011;58438;51.200;7.252;2022-07-29T11:45:52;5.45;;;3.58;;
64457;SDS011;58438;51.200;7.252;2022-07-29T11:48:41;9.20;;;4.45;;
64457;SDS011;58438;51.200;7.252;2022-07-29T11:51:30;6.85;;;3.80;;
64457;SDS011;58438;51.200;7.252;2022-07-29T11:54:21;6.85;;;3.90;;
64457;SDS011;58438;51.200;7.252;2022-07-29T12:00:01;6.53;;;3.30;;
64457;SDS011;58438;51.200;7.252;2022-07-29T12:02:57;7.15;;;3.70;;
64457;SDS011;58438;51.200;7.252;2022-07-29T12:05:45;8.70;;;3.72;;
64457;SDS011;58438;51.200;7.252;2022-07-29T12:08:40;14.32;;;4.00;;
64457;SDS011;58438;51.200;7.252;2022-07-29T12:11:29;6.90;;;4.00;;
64457;SDS011;58438;51.200;7.252;2022-07-29T12:14:27;9.57;;;3.92;;
64457;SDS011;58438;51.200;7.252;2022-07-29T12:17:26;9.85;;;4.30;;
64457;SDS011;58438;51.200;7.252;2022-07-29T12:20:21;8.32;;;4.03;;
64457;SDS011;58438;51.200;7.252;2022-07-29T12:23:10;8.88;;;4.10;;
64457;SDS011;58438;51.200;7.252;2022-07-29T12:26:03;8.18;;;3.90;;
64457;SDS011;58438;51.200;7.252;2022-07-29T12:29:06;8.02;;;4.03;;
64457;SDS011;58438;51.200;7.252;2022-07-29T12:32:00;10.85;;;4.43;;
64457;SDS011;58438;51.200;7.252;2022-07-29T12:34:50;9.55;;;5.00;;
64457;SDS011;58438;51.200;7.252;2022-07-29T12:37:39;10.00;;;4.10;;
64457;SDS011;58438;51.200;7.252;2022-07-29T12:40:27;7.65;;;3.90;;
64457;SDS011;58438;51.200;7.252;2022-07-29T12:43:16;7.70;;;4.45;;
64457;SDS011;58438;51.200;7.252;2022-07-29T12:46:11;7.53;;;4.18;;
64457;SDS011;58438;51.200;7.252;2022-07-29T12:48:59;11.70;;;5.28;;
64457;SDS011;58438;51.200;7.252;2022-07-29T12:51:50;10.90;;;4.38;;
64457;SDS011;58438;51.200;7.252;2022-07-29T12:54:46;8.00;;;3.88;;
64457;SDS011;58438;51.200;7.252;2022-07-29T12:57:44;9.18;;;4.57;;
64457;SDS011;58438;51.200;7.252;2022-07-29T13:00:32;10.57;;;4.30;;
64457;SDS011;58438;51.200;7.252;2022-07-29T13:03:20;15.55;;;4.80;;
64457;SDS011;58438;51.200;7.252;2022-07-29T13:09:14;6.07;;;3.97;;
64457;SDS011;58438;51.200;7.252;2022-07-29T13:12:01;7.70;;;4.22;;
64457;SDS011;58438;51.200;7.252;2022-07-29T13:14:53;8.60;;;4.53;;
64457;SDS011;58438;51.200;7.252;2022-07-29T13:17:41;9.38;;;4.18;;
64457;SDS011;58438;51.200;7.252;2022-07-29T13:20:32;8.98;;;4.28;;
64457;SDS011;58438;51.200;7.252;2022-07-29T13:23:20;7.88;;;4.65;;
64457;SDS011;58438;51.200;7.252;2022-07-29T13:26:10;8.43;;;4.00;;
64457;SDS011;58438;51.200;7.252;2022-07-29T13:28:58;8.75;;;4.80;;
64457;SDS011;58438;51.200;7.252;2022-07-29T13:31:45;6.03;;;4.70;;
64457;SDS011;58438;51.200;7.252;2022-07-29T13:34:33;13.10;;;4.65;;
64457;SDS011;58438;51.200;7.252;2022-07-29T13:37:20;8.77;;;4.15;;
64457;SDS011;58438;51.200;7.252;2022-07-29T13:40:09;7.30;;;4.20;;
64457;SDS011;58438;51.200;7.252;2022-07-29T13:42:58;11.18;;;4.10;;
64457;SDS011;58438;51.200;7.252;2022-07-29T13:45:46;6.43;;;4.07;;
64457;SDS011;58438;51.200;7.252;2022-07-29T13:48:33;8.88;;;4.43;;
64457;SDS011;58438;51.200;7.252;2022-07-29T13:51:21;6.88;;;4.30;;
64457;SDS011;58438;51.200;7.252;2022-07-29T13:54:09;8.98;;;4.30;;
64457;SDS011;58438;51.200;7.252;2022-07-29T13:56:57;9.82;;;4.78;;
64457;SDS011;58438;51.200;7.252;2022-07-29T13:59:45;10.75;;;4.63;;
64457;SDS011;58438;51.200;7.252;2022-07-29T14:02:38;10.32;;;5.13;;
64457;SDS011;58438;51.200;7.252;2022-07-29T14:05:25;6.82;;;4.28;;
64457;SDS011;58438;51.200;7.252;2022-07-29T14:08:12;6.53;;;4.68;;
64457;SDS011;58438;51.200;7.252;2022-07-29T14:11:02;8.73;;;4.85;;
64457;SDS011;58438;51.200;7.252;2022-07-29T14:13:49;8.15;;;4.90;;
64457;SDS011;58438;51.200;7.252;2022-07-29T14:16:37;13.38;;;5.38;;
64457;SDS011;58438;51.200;7.252;2022-07-29T14:19:35;13.07;;;4.82;;
64457;SDS011;58438;51.200;7.252;2022-07-29T14:22:23;8.77;;;4.57;;
64457;SDS011;58438;51.200;7.252;2022-07-29T14:25:11;12.35;;;5.72;;
64457;SDS011;58438;51.200;7.252;2022-07-29T14:28:00;11.63;;;4.97;;
64457;SDS011;58438;51.200;7.252;2022-07-29T14:30:47;9.18;;;5.70;;
64457;SDS011;58438;51.200;7.252;2022-07-29T14:33:35;9.38;;;5.32;;
64457;SDS011;58438;51.200;7.252;2022-07-29T14:36:23;10.48;;;5.28;;
64457;SDS011;58438;51.200;7.252;2022-07-29T14:39:10;8.25;;;4.85;;
64457;SDS011;58438;51.200;7.252;2022-07-29T14:41:58;9.40;;;5.43;;
64457;SDS011;58438;51.200;7.252;2022-07-29T14:44:46;9.35;;;5.13;;
64457;SDS011;58438;51.200;7.252;2022-07-29T14:47:35;10.57;;;4.95;;
64457;SDS011;58438;51.200;7.252;2022-07-29T14:50:24;10.65;;;4.88;;
64457;SDS011;58438;51.200;7.252;2022-07-29T14:53:16;8.32;;;4.90;;
64457;SDS011;58438;51.200;7.252;2022-07-29T14:56:03;10.00;;;4.78;;
64457;SDS011;58438;51.200;7.252;2022-07-29T14:59:11;11.38;;;4.78;;
64457;SDS011;58438;51.200;7.252;2022-07-29T15:01:58;8.05;;;5.25;;
64457;SDS011;58438;51.200;7.252;2022-07-29T15:04:46;6.05;;;4.78;;
64457;SDS011;58438;51.200;7.252;2022-07-29T15:07:35;8.95;;;4.68;;
64457;SDS011;58438;51.200;7.252;2022-07-29T15:10:23;7.82;;;4.63;;
64457;SDS011;58438;51.200;7.252;2022-07-29T15:13:11;9.25;;;4.97;;
64457;SDS011;58438;51.200;7.252;2022-07-29T15:15:58;8.32;;;5.18;;
64457;SDS011;58438;51.200;7.252;2022-07-29T15:18:45;10.93;;;5.57;;
64457;SDS011;58438;51.200;7.252;2022-07-29T15:21:32;7.95;;;5.38;;
64457;SDS011;58438;51.200;7.252;2022-07-29T15:24:27;12.75;;;5.38;;
64457;SDS011;58438;51.200;7.252;2022-07-29T15:27:15;11.23;;;6.40;;
64457;SDS011;58438;51.200;7.252;2022-07-29T15:30:02;12.25;;;5.47;;
64457;SDS011;58438;51.200;7.252;2022-07-29T15:32:50;13.02;;;6.38;;
64457;SDS011;58438;51.200;7.252;2022-07-29T15:35:41;13.68;;;6.57;;
64457;SDS011;58438;51.200;7.252;2022-07-29T15:38:29;15.00;;;6.03;;
64457;SDS011;58438;51.200;7.252;2022-07-29T15:41:18;13.32;;;5.95;;
64457;SDS011;58438;51.200;7.252;2022-07-29T15:44:05;9.60;;;5.78;;
64457;SDS011;58438;51.200;7.252;2022-07-29T15:46:53;12.75;;;6.07;;
64457;SDS011;58438;51.200;7.252;2022-07-29T15:49:50;10.13;;;6.07;;
64457;SDS011;58438;51.200;7.252;2022-07-29T15:52:37;11.38;;;5.63;;
64457;SDS011;58438;51.200;7.252;2022-07-29T15:55:25;13.88;;;5.95;;
64457;SDS011;58438;51.200;7.252;2022-07-29T15:58:14;9.43;;;6.15;;
64457;SDS011;58438;51.200;7.252;2022-07-29T16:01:02;9.20;;;5.72;;
64457;SDS011;58438;51.200;7.252;2022-07-29T16:03:49;7.38;;;5.68;;
64457;SDS011;58438;51.200;7.252;2022-07-29T16:06:37;8.45;;;5.85;;
64457;SDS011;58438;51.200;7.252;2022-07-29T16:09:24;10.63;;;6.05;;
64457;SDS011;58438;51.200;7.252;2022-07-29T16:12:12;12.93;;;5.75;;
64457;SDS011;58438;51.200;7.252;2022-07-29T16:15:01;10.05;;;5.63;;
64457;SDS011;58438;51.200;7.252;2022-07-29T16:17:55;9.75;;;5.35;;
64457;SDS011;58438;51.200;7.252;2022-07-29T16:20:42;12.70;;;5.32;;
64457;SDS011;58438;51.200;7.252;2022-07-29T16:23:29;9.15;;;5.30;;
64457;SDS011;58438;51.200;7.252;2022-07-29T16:26:17;8.63;;;4.57;;
64457;SDS011;58438;51.200;7.252;2022-07-29T16:29:04;10.05;;;5.45;;
64457;SDS011;58438;51.200;7.252;2022-07-29T16:31:53;9.70;;;5.32;;
64457;SDS011;58438;51.200;7.252;2022-07-29T16:34:40;7.90;;;5.05;;
64457;SDS011;58438;51.200;7.252;2022-07-29T16:37:27;11.20;;;5.45;;
64457;SDS011;58438;51.200;7.252;2022-07-29T16:40:18;8.65;;;5.20;;
64457;SDS011;58438;51.200;7.252;2022-07-29T16:43:05;9.02;;;5.03;;
64457;SDS011;58438;51.200;7.252;2022-07-29T16:45:52;7.70;;;5.20;;
64457;SDS011;58438;51.200;7.252;2022-07-29T16:48:41;11.23;;;5.60;;
64457;SDS011;58438;51.200;7.252;2022-07-29T16:51:30;11.48;;;6.22;;
64457;SDS011;58438;51.200;7.252;2022-07-29T16:54:17;15.68;;;6.55;;
64457;SDS011;58438;51.200;7.252;2022-07-29T16:57:04;10.88;;;5.85;;
64457;SDS011;58438;51.200;7.252;2022-07-29T16:59:51;10.32;;;5.88;;
64457;SDS011;58438;51.200;7.252;2022-07-29T17:02:38;13.88;;;6.28;;
64457;SDS011;58438;51.200;7.252;2022-07-29T17:05:26;9.75;;;6.03;;
64457;SDS011;58438;51.200;7.252;2022-07-29T17:08:13;8.60;;;5.93;;
64457;SDS011;58438;51.200;7.252;2022-07-29T17:11:01;10.60;;;6.97;;
64457;SDS011;58438;51.200;7.252;2022-07-29T17:13:48;11.57;;;7.57;;
64457;SDS011;58438;51.200;7.252;2022-07-29T17:16:36;9.93;;;6.65;;
64457;SDS011;58438;51.200;7.252;2022-07-29T17:19:23;14.05;;;7.00;;